sensor_id;sensor_type;location;lat;lon;timestamp;temperature;humidity
74294;DHT22;64044;59.904;10.738;2023-08-31T00:00:34;16.00;66.00
74294;DHT22;64044;59.904;10.738;2023-08-31T00:03:01;16.00;66.00
74294;DHT22;64044;59.904;10.738;2023-08-31T00:05:27;16.00;66.10
74294;DHT22;64044;59.904;10.738;2023-08-31T00:07:56;16.00;66.10
74294;DHT22;64044;59.904;10.738;2023-08-31T00:10:22;16.00;67.30
74294;DHT22;64044;59.904;10.738;2023-08-31T00:12:49;16.00;66.50
74294;DHT22;64044;59.904;10.738;2023-08-31T00:15:15;16.00;66.80
74294;DHT22;64044;59.904;10.738;2023-08-31T00:17:40;16.00;66.90
74294;DHT22;64044;59.904;10.738;2023-08-31T00:20:07;15.90;66.90
74294;DHT22;64044;59.904;10.738;2023-08-31T00:22:37;16.00;67.10
74294;DHT22;64044;59.904;10.738;2023-08-31T00:25:04;16.00;67.00
74294;DHT22;64044;59.904;10.738;2023-08-31T00:27:31;16.00;67.00
74294;DHT22;64044;59.904;10.738;2023-08-31T00:29:57;16.00;67.00
74294;DHT22;64044;59.904;10.738;2023-08-31T00:32:24;15.90;67.00
74294;DHT22;64044;59.904;10.738;2023-08-31T00:34:50;15.90;67.10
74294;DHT22;64044;59.904;10.738;2023-08-31T00:37:16;15.90;67.20
74294;DHT22;64044;59.904;10.738;2023-08-31T00:39:42;15.90;67.40
74294;DHT22;64044;59.904;10.738;2023-08-31T00:42:09;15.90;67.60
74294;DHT22;64044;59.904;10.738;2023-08-31T00:44:35;15.90;67.60
74294;DHT22;64044;59.904;10.738;2023-08-31T00:47:01;15.90;67.70
74294;DHT22;64044;59.904;10.738;2023-08-31T00:49:29;15.90;67.70
74294;DHT22;64044;59.904;10.738;2023-08-31T00:51:55;15.90;67.70
74294;DHT22;64044;59.904;10.738;2023-08-31T00:54:23;15.90;67.80
74294;DHT22;64044;59.904;10.738;2023-08-31T00:56:53;15.90;67.80
74294;DHT22;64044;59.904;10.738;2023-08-31T00:59:19;15.90;68.10
74294;DHT22;64044;59.904;10.738;2023-08-31T01:02:02;15.90;67.90
74294;DHT22;64044;59.904;10.738;2023-08-31T01:04:38;15.80;68.30
74294;DHT22;64044;59.904;10.738;2023-08-31T01:12:33;15.80;68.00
74294;DHT22;64044;59.904;10.738;2023-08-31T01:15:04;15.80;68.40
74294;DHT22;64044;59.904;10.738;2023-08-31T01:17:41;15.80;68.20
74294;DHT22;64044;59.904;10.738;2023-08-31T01:20:10;15.80;68.30
74294;DHT22;64044;59.904;10.738;2023-08-31T01:22:43;15.70;68.00
74294;DHT22;64044;59.904;10.738;2023-08-31T01:25:09;15.70;68.20
74294;DHT22;64044;59.904;10.738;2023-08-31T01:27:36;15.70;68.30
74294;DHT22;64044;59.904;10.738;2023-08-31T01:30:03;15.70;68.50
74294;DHT22;64044;59.904;10.738;2023-08-31T01:32:30;15.60;68.50
74294;DHT22;64044;59.904;10.738;2023-08-31T01:34:56;15.60;68.50
74294;DHT22;64044;59.904;10.738;2023-08-31T01:38:07;15.60;68.50
74294;DHT22;64044;59.904;10.738;2023-08-31T01:40:54;15.60;68.90
74294;DHT22;64044;59.904;10.738;2023-08-31T01:43:23;15.60;68.60
74294;DHT22;64044;59.904;10.738;2023-08-31T01:45:49;15.60;68.20
74294;DHT22;64044;59.904;10.738;2023-08-31T01:48:15;15.50;68.20
74294;DHT22;64044;59.904;10.738;2023-08-31T01:50:41;15.50;68.20
74294;DHT22;64044;59.904;10.738;2023-08-31T01:53:06;15.50;68.30
74294;DHT22;64044;59.904;10.738;2023-08-31T01:55:32;15.50;68.50
74294;DHT22;64044;59.904;10.738;2023-08-31T01:57:58;15.50;68.70
74294;DHT22;64044;59.904;10.738;2023-08-31T02:00:25;15.50;68.80
74294;DHT22;64044;59.904;10.738;2023-08-31T02:02:51;15.40;68.80
74294;DHT22;64044;59.904;10.738;2023-08-31T02:05:17;15.40;68.80
74294;DHT22;64044;59.904;10.738;2023-08-31T02:07:43;15.40;68.90
74294;DHT22;64044;59.904;10.738;2023-08-31T02:10:09;15.40;68.90
74294;DHT22;64044;59.904;10.738;2023-08-31T02:12:35;15.40;69.00
74294;DHT22;64044;59.904;10.738;2023-08-31T02:15:05;15.40;69.10
74294;DHT22;64044;59.904;10.738;2023-08-31T02:17:31;15.40;69.10
74294;DHT22;64044;59.904;10.738;2023-08-31T02:19:57;15.40;69.10
74294;DHT22;64044;59.904;10.738;2023-08-31T02:22:23;15.40;69.30
74294;DHT22;64044;59.904;10.738;2023-08-31T02:24:49;15.40;69.30
74294;DHT22;64044;59.904;10.738;2023-08-31T02:27:14;15.40;69.20
74294;DHT22;64044;59.904;10.738;2023-08-31T02:29:40;15.40;69.20
74294;DHT22;64044;59.904;10.738;2023-08-31T02:32:06;15.30;69.20
74294;DHT22;64044;59.904;10.738;2023-08-31T02:34:32;15.30;69.20
74294;DHT22;64044;59.904;10.738;2023-08-31T02:36:58;15.30;69.30
74294;DHT22;64044;59.904;10.738;2023-08-31T02:39:23;15.30;69.50
74294;DHT22;64044;59.904;10.738;2023-08-31T02:41:49;15.30;69.70
74294;DHT22;64044;59.904;10.738;2023-08-31T02:44:15;15.30;69.80
74294;DHT22;64044;59.904;10.738;2023-08-31T02:46:41;15.30;69.80
74294;DHT22;64044;59.904;10.738;2023-08-31T02:49:06;15.30;69.80
74294;DHT22;64044;59.904;10.738;2023-08-31T02:51:32;15.30;69.90
74294;DHT22;64044;59.904;10.738;2023-08-31T02:53:58;15.30;69.80
74294;DHT22;64044;59.904;10.738;2023-08-31T02:56:23;15.30;69.70
74294;DHT22;64044;59.904;10.738;2023-08-31T02:58:49;15.30;69.70
74294;DHT22;64044;59.904;10.738;2023-08-31T03:01:15;15.30;69.70
74294;DHT22;64044;59.904;10.738;2023-08-31T03:03:42;15.30;69.60
74294;DHT22;64044;59.904;10.738;2023-08-31T03:06:08;15.40;69.70
74294;DHT22;64044;59.904;10.738;2023-08-31T03:08:35;15.40;69.70
74294;DHT22;64044;59.904;10.738;2023-08-31T03:11:03;15.40;69.70
74294;DHT22;64044;59.904;10.738;2023-08-31T03:13:29;15.40;69.70
74294;DHT22;64044;59.904;10.738;2023-08-31T03:15:54;15.40;69.70
74294;DHT22;64044;59.904;10.738;2023-08-31T03:18:22;15.40;69.60
74294;DHT22;64044;59.904;10.738;2023-08-31T03:20:48;15.30;69.60
74294;DHT22;64044;59.904;10.738;2023-08-31T03:23:14;15.40;69.60
74294;DHT22;64044;59.904;10.738;2023-08-31T03:25:39;15.30;69.50
74294;DHT22;64044;59.904;10.738;2023-08-31T03:28:05;15.40;69.60
74294;DHT22;64044;59.904;10.738;2023-08-31T03:30:31;15.40;69.50
74294;DHT22;64044;59.904;10.738;2023-08-31T03:32:57;15.40;69.50
74294;DHT22;64044;59.904;10.738;2023-08-31T03:35:22;15.40;69.50
74294;DHT22;64044;59.904;10.738;2023-08-31T03:37:52;15.40;69.50
74294;DHT22;64044;59.904;10.738;2023-08-31T03:40:18;15.40;69.50
74294;DHT22;64044;59.904;10.738;2023-08-31T03:42:44;15.40;69.50
74294;DHT22;64044;59.904;10.738;2023-08-31T03:45:11;15.40;69.50
74294;DHT22;64044;59.904;10.738;2023-08-31T03:47:37;15.40;69.50
74294;DHT22;64044;59.904;10.738;2023-08-31T03:50:03;15.30;69.40
74294;DHT22;64044;59.904;10.738;2023-08-31T03:52:29;15.40;69.40
74294;DHT22;64044;59.904;10.738;2023-08-31T03:54:55;15.30;69.40
74294;DHT22;64044;59.904;10.738;2023-08-31T03:57:21;15.40;69.40
74294;DHT22;64044;59.904;10.738;2023-08-31T03:59:47;15.30;69.30
74294;DHT22;64044;59.904;10.738;2023-08-31T04:02:13;15.30;69.40
74294;DHT22;64044;59.904;10.738;2023-08-31T04:04:38;15.30;69.30
74294;DHT22;64044;59.904;10.738;2023-08-31T04:07:05;15.30;69.40
74294;DHT22;64044;59.904;10.738;2023-08-31T04:09:30;15.20;69.40
74294;DHT22;64044;59.904;10.738;2023-08-31T04:11:56;15.20;69.40
74294;DHT22;64044;59.904;10.738;2023-08-31T04:14:22;15.20;69.60
74294;DHT22;64044;59.904;10.738;2023-08-31T04:16:47;15.20;69.70
74294;DHT22;64044;59.904;10.738;2023-08-31T04:19:16;15.20;69.80
74294;DHT22;64044;59.904;10.738;2023-08-31T04:21:43;15.20;70.00
74294;DHT22;64044;59.904;10.738;2023-08-31T04:24:08;15.20;70.00
74294;DHT22;64044;59.904;10.738;2023-08-31T04:26:34;15.20;70.10
74294;DHT22;64044;59.904;10.738;2023-08-31T04:29:01;15.20;70.10
74294;DHT22;64044;59.904;10.738;2023-08-31T04:31:26;15.20;70.20
74294;DHT22;64044;59.904;10.738;2023-08-31T04:33:52;15.20;70.20
74294;DHT22;64044;59.904;10.738;2023-08-31T04:36:21;15.20;70.20
74294;DHT22;64044;59.904;10.738;2023-08-31T04:38:48;15.20;70.30
74294;DHT22;64044;59.904;10.738;2023-08-31T04:41:14;15.20;70.30
74294;DHT22;64044;59.904;10.738;2023-08-31T04:43:40;15.20;70.30
74294;DHT22;64044;59.904;10.738;2023-08-31T04:46:06;15.20;70.40
74294;DHT22;64044;59.904;10.738;2023-08-31T04:48:32;15.20;70.40
74294;DHT22;64044;59.904;10.738;2023-08-31T04:50:58;15.20;70.40
74294;DHT22;64044;59.904;10.738;2023-08-31T04:53:24;15.10;70.30
74294;DHT22;64044;59.904;10.738;2023-08-31T04:55:50;15.20;70.40
74294;DHT22;64044;59.904;10.738;2023-08-31T04:58:16;15.20;70.40
74294;DHT22;64044;59.904;10.738;2023-08-31T05:00:42;15.20;70.50
74294;DHT22;64044;59.904;10.738;2023-08-31T05:03:09;15.20;70.50
74294;DHT22;64044;59.904;10.738;2023-08-31T05:05:35;15.10;70.50
74294;DHT22;64044;59.904;10.738;2023-08-31T05:08:01;15.20;70.50
74294;DHT22;64044;59.904;10.738;2023-08-31T05:10:28;15.10;70.50
74294;DHT22;64044;59.904;10.738;2023-08-31T05:12:54;15.10;70.50
74294;DHT22;64044;59.904;10.738;2023-08-31T05:15:19;15.10;70.60
74294;DHT22;64044;59.904;10.738;2023-08-31T05:17:45;15.10;70.60
74294;DHT22;64044;59.904;10.738;2023-08-31T05:20:11;15.10;70.60
74294;DHT22;64044;59.904;10.738;2023-08-31T05:23:01;15.10;70.60
74294;DHT22;64044;59.904;10.738;2023-08-31T05:25:27;15.10;70.60
74294;DHT22;64044;59.904;10.738;2023-08-31T05:27:53;15.10;71.40
74294;DHT22;64044;59.904;10.738;2023-08-31T05:30:18;15.10;70.70
74294;DHT22;64044;59.904;10.738;2023-08-31T05:32:44;15.10;70.70
74294;DHT22;64044;59.904;10.738;2023-08-31T05:35:10;15.10;70.70
74294;DHT22;64044;59.904;10.738;2023-08-31T05:37:35;15.10;70.70
74294;DHT22;64044;59.904;10.738;2023-08-31T05:40:03;15.20;70.80
74294;DHT22;64044;59.904;10.738;2023-08-31T05:42:32;15.20;70.70
74294;DHT22;64044;59.904;10.738;2023-08-31T05:44:57;15.20;70.60
74294;DHT22;64044;59.904;10.738;2023-08-31T05:47:23;15.20;70.60
74294;DHT22;64044;59.904;10.738;2023-08-31T05:49:49;15.20;71.40
74294;DHT22;64044;59.904;10.738;2023-08-31T05:52:14;15.30;70.60
74294;DHT22;64044;59.904;10.738;2023-08-31T05:54:40;15.20;70.40
74294;DHT22;64044;59.904;10.738;2023-08-31T05:57:06;15.30;70.50
74294;DHT22;64044;59.904;10.738;2023-08-31T05:59:31;15.30;70.40
74294;DHT22;64044;59.904;10.738;2023-08-31T06:01:57;15.40;70.40
74294;DHT22;64044;59.904;10.738;2023-08-31T06:04:23;15.40;70.40
74294;DHT22;64044;59.904;10.738;2023-08-31T06:06:48;15.40;70.30
74294;DHT22;64044;59.904;10.738;2023-08-31T06:09:17;15.50;70.30
74294;DHT22;64044;59.904;10.738;2023-08-31T06:11:43;15.50;70.30
74294;DHT22;64044;59.904;10.738;2023-08-31T06:14:08;15.50;70.30
74294;DHT22;64044;59.904;10.738;2023-08-31T06:16:34;15.50;70.10
74294;DHT22;64044;59.904;10.738;2023-08-31T06:19:00;15.60;70.20
74294;DHT22;64044;59.904;10.738;2023-08-31T06:21:25;15.70;70.20
74294;DHT22;64044;59.904;10.738;2023-08-31T06:23:51;15.70;70.00
74294;DHT22;64044;59.904;10.738;2023-08-31T06:26:16;15.70;69.90
74294;DHT22;64044;59.904;10.738;2023-08-31T06:28:42;15.70;69.80
74294;DHT22;64044;59.904;10.738;2023-08-31T06:31:08;15.80;69.90
74294;DHT22;64044;59.904;10.738;2023-08-31T06:33:34;15.80;69.70
74294;DHT22;64044;59.904;10.738;2023-08-31T06:36:00;15.90;69.70
74294;DHT22;64044;59.904;10.738;2023-08-31T06:38:25;15.90;69.50
74294;DHT22;64044;59.904;10.738;2023-08-31T06:40:51;16.00;69.50
74294;DHT22;64044;59.904;10.738;2023-08-31T06:43:20;16.00;69.40
74294;DHT22;64044;59.904;10.738;2023-08-31T06:45:46;16.10;69.30
74294;DHT22;64044;59.904;10.738;2023-08-31T06:48:11;16.10;69.20
74294;DHT22;64044;59.904;10.738;2023-08-31T06:50:37;16.10;69.00
74294;DHT22;64044;59.904;10.738;2023-08-31T06:53:03;16.20;68.90
74294;DHT22;64044;59.904;10.738;2023-08-31T06:55:29;16.30;68.80
74294;DHT22;64044;59.904;10.738;2023-08-31T06:57:54;16.30;68.80
74294;DHT22;64044;59.904;10.738;2023-08-31T07:00:20;16.30;68.80
74294;DHT22;64044;59.904;10.738;2023-08-31T07:02:46;16.40;68.60
74294;DHT22;64044;59.904;10.738;2023-08-31T07:05:11;16.50;68.50
74294;DHT22;64044;59.904;10.738;2023-08-31T07:07:37;16.50;68.30
74294;DHT22;64044;59.904;10.738;2023-08-31T07:10:03;16.60;68.20
74294;DHT22;64044;59.904;10.738;2023-08-31T07:12:31;16.60;68.10
74294;DHT22;64044;59.904;10.738;2023-08-31T07:14:57;16.70;68.00
74294;DHT22;64044;59.904;10.738;2023-08-31T07:17:22;16.70;67.90
74294;DHT22;64044;59.904;10.738;2023-08-31T07:19:48;16.80;67.70
74294;DHT22;64044;59.904;10.738;2023-08-31T07:22:14;16.90;67.50
74294;DHT22;64044;59.904;10.738;2023-08-31T07:24:39;16.90;67.50
74294;DHT22;64044;59.904;10.738;2023-08-31T07:27:05;16.90;67.40
74294;DHT22;64044;59.904;10.738;2023-08-31T07:29:31;17.00;67.50
74294;DHT22;64044;59.904;10.738;2023-08-31T07:31:57;17.10;67.30
74294;DHT22;64044;59.904;10.738;2023-08-31T07:34:23;17.10;67.20
74294;DHT22;64044;59.904;10.738;2023-08-31T07:36:49;17.20;67.10
74294;DHT22;64044;59.904;10.738;2023-08-31T07:39:15;17.20;67.00
74294;DHT22;64044;59.904;10.738;2023-08-31T07:41:44;17.30;66.80
74294;DHT22;64044;59.904;10.738;2023-08-31T07:44:10;17.40;66.80
74294;DHT22;64044;59.904;10.738;2023-08-31T07:46:35;17.40;66.60
74294;DHT22;64044;59.904;10.738;2023-08-31T07:49:01;17.50;66.40
74294;DHT22;64044;59.904;10.738;2023-08-31T07:51:28;17.50;66.30
74294;DHT22;64044;59.904;10.738;2023-08-31T07:53:54;17.60;66.20
74294;DHT22;64044;59.904;10.738;2023-08-31T07:56:19;17.70;66.20
74294;DHT22;64044;59.904;10.738;2023-08-31T07:58:45;17.70;66.00
74294;DHT22;64044;59.904;10.738;2023-08-31T08:01:11;17.80;65.80
74294;DHT22;64044;59.904;10.738;2023-08-31T08:03:36;17.80;65.60
74294;DHT22;64044;59.904;10.738;2023-08-31T08:06:02;17.90;65.40
74294;DHT22;64044;59.904;10.738;2023-08-31T08:08:28;17.90;65.30
74294;DHT22;64044;59.904;10.738;2023-08-31T08:10:54;18.00;65.20
74294;DHT22;64044;59.904;10.738;2023-08-31T08:13:20;18.00;65.40
74294;DHT22;64044;59.904;10.738;2023-08-31T08:16:11;18.00;65.30
74294;DHT22;64044;59.904;10.738;2023-08-31T08:18:37;18.00;65.50
74294;DHT22;64044;59.904;10.738;2023-08-31T08:21:03;18.00;65.40
74294;DHT22;64044;59.904;10.738;2023-08-31T08:23:28;18.00;65.10
74294;DHT22;64044;59.904;10.738;2023-08-31T08:25:54;18.00;65.10
74294;DHT22;64044;59.904;10.738;2023-08-31T08:28:20;18.00;65.30
74294;DHT22;64044;59.904;10.738;2023-08-31T08:30:45;18.00;65.30
74294;DHT22;64044;59.904;10.738;2023-08-31T08:33:11;18.00;65.10
74294;DHT22;64044;59.904;10.738;2023-08-31T08:35:38;18.00;65.30
74294;DHT22;64044;59.904;10.738;2023-08-31T08:38:04;18.10;65.50
74294;DHT22;64044;59.904;10.738;2023-08-31T08:40:31;18.10;65.20
74294;DHT22;64044;59.904;10.738;2023-08-31T08:42:59;18.10;65.10
74294;DHT22;64044;59.904;10.738;2023-08-31T08:45:30;18.10;65.30
74294;DHT22;64044;59.904;10.738;2023-08-31T08:47:57;18.10;65.50
74294;DHT22;64044;59.904;10.738;2023-08-31T08:50:24;18.10;65.50
74294;DHT22;64044;59.904;10.738;2023-08-31T08:52:50;18.20;65.70
74294;DHT22;64044;59.904;10.738;2023-08-31T08:55:16;18.20;65.60
74294;DHT22;64044;59.904;10.738;2023-08-31T08:57:44;18.20;65.60
74294;DHT22;64044;59.904;10.738;2023-08-31T09:00:10;18.20;65.60
74294;DHT22;64044;59.904;10.738;2023-08-31T09:02:36;18.30;65.60
74294;DHT22;64044;59.904;10.738;2023-08-31T09:05:02;18.30;65.70
74294;DHT22;64044;59.904;10.738;2023-08-31T09:07:29;18.30;65.50
74294;DHT22;64044;59.904;10.738;2023-08-31T09:09:55;18.30;65.30
74294;DHT22;64044;59.904;10.738;2023-08-31T09:12:23;18.30;65.10
74294;DHT22;64044;59.904;10.738;2023-08-31T09:14:59;18.40;65.30
74294;DHT22;64044;59.904;10.738;2023-08-31T09:17:25;18.40;65.10
74294;DHT22;64044;59.904;10.738;2023-08-31T09:19:59;18.40;65.20
74294;DHT22;64044;59.904;10.738;2023-08-31T09:22:26;18.40;65.20
74294;DHT22;64044;59.904;10.738;2023-08-31T09:24:52;18.50;65.10
74294;DHT22;64044;59.904;10.738;2023-08-31T09:27:20;18.50;64.70
74294;DHT22;64044;59.904;10.738;2023-08-31T09:29:46;18.60;64.90
74294;DHT22;64044;59.904;10.738;2023-08-31T09:32:18;18.60;65.00
74294;DHT22;64044;59.904;10.738;2023-08-31T09:34:45;18.70;64.50
74294;DHT22;64044;59.904;10.738;2023-08-31T09:37:10;18.80;64.80
74294;DHT22;64044;59.904;10.738;2023-08-31T09:39:38;18.80;64.60
74294;DHT22;64044;59.904;10.738;2023-08-31T09:42:04;18.90;64.50
74294;DHT22;64044;59.904;10.738;2023-08-31T09:44:30;19.00;64.40
74294;DHT22;64044;59.904;10.738;2023-08-31T09:46:57;19.10;64.20
74294;DHT22;64044;59.904;10.738;2023-08-31T09:49:24;19.10;64.10
74294;DHT22;64044;59.904;10.738;2023-08-31T09:51:51;19.20;63.70
74294;DHT22;64044;59.904;10.738;2023-08-31T09:54:19;19.40;63.90
74294;DHT22;64044;59.904;10.738;2023-08-31T09:56:47;19.50;63.70
74294;DHT22;64044;59.904;10.738;2023-08-31T09:59:15;19.50;63.10
74294;DHT22;64044;59.904;10.738;2023-08-31T10:01:42;19.60;63.00
74294;DHT22;64044;59.904;10.738;2023-08-31T10:04:08;19.80;62.90
74294;DHT22;64044;59.904;10.738;2023-08-31T10:06:38;19.80;62.80
74294;DHT22;64044;59.904;10.738;2023-08-31T10:09:05;20.00;62.50
74294;DHT22;64044;59.904;10.738;2023-08-31T10:11:31;20.10;62.50
74294;DHT22;64044;59.904;10.738;2023-08-31T10:13:58;20.10;62.30
74294;DHT22;64044;59.904;10.738;2023-08-31T10:16:25;20.20;62.00
74294;DHT22;64044;59.904;10.738;2023-08-31T10:18:53;20.30;61.30
74294;DHT22;64044;59.904;10.738;2023-08-31T10:21:19;20.40;61.20
74294;DHT22;64044;59.904;10.738;2023-08-31T10:23:46;20.40;61.00
74294;DHT22;64044;59.904;10.738;2023-08-31T10:26:26;20.40;61.20
74294;DHT22;64044;59.904;10.738;2023-08-31T10:28:52;20.50;61.00
74294;DHT22;64044;59.904;10.738;2023-08-31T10:31:19;20.60;61.20
74294;DHT22;64044;59.904;10.738;2023-08-31T10:34:02;20.60;61.00
74294;DHT22;64044;59.904;10.738;2023-08-31T10:36:43;20.70;61.30
74294;DHT22;64044;59.904;10.738;2023-08-31T10:39:13;20.80;61.10
74294;DHT22;64044;59.904;10.738;2023-08-31T10:41:41;20.80;61.00
74294;DHT22;64044;59.904;10.738;2023-08-31T10:44:21;20.80;60.90
74294;DHT22;64044;59.904;10.738;2023-08-31T10:46:48;21.00;60.50
74294;DHT22;64044;59.904;10.738;2023-08-31T10:49:15;21.00;60.00
74294;DHT22;64044;59.904;10.738;2023-08-31T10:51:53;21.00;60.00
74294;DHT22;64044;59.904;10.738;2023-08-31T10:56:53;21.20;59.40
74294;DHT22;64044;59.904;10.738;2023-08-31T10:59:22;21.20;58.70
74294;DHT22;64044;59.904;10.738;2023-08-31T11:01:58;21.30;59.50
74294;DHT22;64044;59.904;10.738;2023-08-31T11:04:29;21.40;57.40
74294;DHT22;64044;59.904;10.738;2023-08-31T11:07:16;21.50;58.30
74294;DHT22;64044;59.904;10.738;2023-08-31T11:09:43;21.60;57.40
74294;DHT22;64044;59.904;10.738;2023-08-31T11:12:10;21.70;57.90
74294;DHT22;64044;59.904;10.738;2023-08-31T11:14:35;21.90;57.60
74294;DHT22;64044;59.904;10.738;2023-08-31T11:17:02;21.90;57.30
74294;DHT22;64044;59.904;10.738;2023-08-31T11:19:30;22.10;57.30
74294;DHT22;64044;59.904;10.738;2023-08-31T11:21:56;22.30;57.80
74294;DHT22;64044;59.904;10.738;2023-08-31T11:24:22;22.40;56.60
74294;DHT22;64044;59.904;10.738;2023-08-31T11:26:50;22.50;56.80
74294;DHT22;64044;59.904;10.738;2023-08-31T11:29:16;22.70;56.10
74294;DHT22;64044;59.904;10.738;2023-08-31T11:31:41;22.90;56.10
74294;DHT22;64044;59.904;10.738;2023-08-31T11:34:12;23.00;55.40
74294;DHT22;64044;59.904;10.738;2023-08-31T11:36:38;23.20;55.10
74294;DHT22;64044;59.904;10.738;2023-08-31T11:39:06;23.40;55.00
74294;DHT22;64044;59.904;10.738;2023-08-31T11:41:33;23.60;55.30
74294;DHT22;64044;59.904;10.738;2023-08-31T11:43:59;23.80;54.50
74294;DHT22;64044;59.904;10.738;2023-08-31T11:46:25;24.10;53.70
74294;DHT22;64044;59.904;10.738;2023-08-31T11:48:51;24.30;53.40
74294;DHT22;64044;59.904;10.738;2023-08-31T11:51:17;24.50;52.70
74294;DHT22;64044;59.904;10.738;2023-08-31T11:53:44;24.80;52.40
74294;DHT22;64044;59.904;10.738;2023-08-31T11:56:11;25.00;51.60
74294;DHT22;64044;59.904;10.738;2023-08-31T11:58:43;25.30;50.90
74294;DHT22;64044;59.904;10.738;2023-08-31T12:01:18;25.60;49.50
74294;DHT22;64044;59.904;10.738;2023-08-31T12:03:45;25.90;48.40
74294;DHT22;64044;59.904;10.738;2023-08-31T12:06:11;26.20;49.20
74294;DHT22;64044;59.904;10.738;2023-08-31T12:08:37;26.50;48.90
74294;DHT22;64044;59.904;10.738;2023-08-31T12:11:05;26.80;48.50
74294;DHT22;64044;59.904;10.738;2023-08-31T12:13:31;27.10;47.90
74294;DHT22;64044;59.904;10.738;2023-08-31T12:15:58;27.30;47.20
74294;DHT22;64044;59.904;10.738;2023-08-31T12:18:24;27.50;46.20
74294;DHT22;64044;59.904;10.738;2023-08-31T12:20:51;27.60;45.20
74294;DHT22;64044;59.904;10.738;2023-08-31T12:23:18;27.70;45.30
74294;DHT22;64044;59.904;10.738;2023-08-31T12:25:50;27.80;44.60
74294;DHT22;64044;59.904;10.738;2023-08-31T12:28:17;27.80;43.90
74294;DHT22;64044;59.904;10.738;2023-08-31T12:30:51;27.90;44.30
74294;DHT22;64044;59.904;10.738;2023-08-31T12:33:17;28.00;43.80
74294;DHT22;64044;59.904;10.738;2023-08-31T12:35:44;28.10;44.30
74294;DHT22;64044;59.904;10.738;2023-08-31T12:38:09;28.20;45.10
74294;DHT22;64044;59.904;10.738;2023-08-31T12:40:35;28.50;44.70
74294;DHT22;64044;59.904;10.738;2023-08-31T12:43:01;28.90;44.40
74294;DHT22;64044;59.904;10.738;2023-08-31T12:45:27;29.30;44.90
74294;DHT22;64044;59.904;10.738;2023-08-31T12:47:53;29.70;43.70
74294;DHT22;64044;59.904;10.738;2023-08-31T12:50:19;30.10;42.80
74294;DHT22;64044;59.904;10.738;2023-08-31T12:52:45;30.40;41.80
74294;DHT22;64044;59.904;10.738;2023-08-31T12:55:15;30.70;41.10
74294;DHT22;64044;59.904;10.738;2023-08-31T12:57:41;30.90;40.20
74294;DHT22;64044;59.904;10.738;2023-08-31T13:00:08;31.00;39.60
74294;DHT22;64044;59.904;10.738;2023-08-31T13:02:38;31.00;38.60
74294;DHT22;64044;59.904;10.738;2023-08-31T13:05:05;31.00;38.40
74294;DHT22;64044;59.904;10.738;2023-08-31T13:07:31;31.00;38.10
74294;DHT22;64044;59.904;10.738;2023-08-31T13:10:00;30.80;37.80
74294;DHT22;64044;59.904;10.738;2023-08-31T13:12:29;30.60;37.90
74294;DHT22;64044;59.904;10.738;2023-08-31T13:14:56;30.30;37.90
74294;DHT22;64044;59.904;10.738;2023-08-31T13:17:22;30.10;37.60
74294;DHT22;64044;59.904;10.738;2023-08-31T13:19:55;29.70;37.90
74294;DHT22;64044;59.904;10.738;2023-08-31T13:22:22;29.50;37.80
74294;DHT22;64044;59.904;10.738;2023-08-31T13:24:47;29.20;37.90
74294;DHT22;64044;59.904;10.738;2023-08-31T13:27:13;28.90;38.40
74294;DHT22;64044;59.904;10.738;2023-08-31T13:29:39;28.70;38.70
74294;DHT22;64044;59.904;10.738;2023-08-31T13:32:06;28.50;38.40
74294;DHT22;64044;59.904;10.738;2023-08-31T13:34:33;28.20;38.60
74294;DHT22;64044;59.904;10.738;2023-08-31T13:36:59;28.10;38.80
74294;DHT22;64044;59.904;10.738;2023-08-31T13:39:26;27.90;38.60
74294;DHT22;64044;59.904;10.738;2023-08-31T13:41:52;27.70;39.00
74294;DHT22;64044;59.904;10.738;2023-08-31T13:44:19;27.60;39.10
74294;DHT22;64044;59.904;10.738;2023-08-31T13:46:46;27.50;39.20
74294;DHT22;64044;59.904;10.738;2023-08-31T13:49:12;27.50;39.50
74294;DHT22;64044;59.904;10.738;2023-08-31T13:51:38;27.40;39.60
74294;DHT22;64044;59.904;10.738;2023-08-31T13:54:05;27.40;39.80
74294;DHT22;64044;59.904;10.738;2023-08-31T13:56:31;27.40;39.60
74294;DHT22;64044;59.904;10.738;2023-08-31T13:58:56;27.40;39.70
74294;DHT22;64044;59.904;10.738;2023-08-31T14:01:23;27.40;40.10
74294;DHT22;64044;59.904;10.738;2023-08-31T14:03:48;27.50;39.60
74294;DHT22;64044;59.904;10.738;2023-08-31T14:06:14;27.50;39.70
74294;DHT22;64044;59.904;10.738;2023-08-31T14:08:40;27.60;39.70
74294;DHT22;64044;59.904;10.738;2023-08-31T14:11:06;27.60;39.80
74294;DHT22;64044;59.904;10.738;2023-08-31T14:13:32;27.70;39.70
74294;DHT22;64044;59.904;10.738;2023-08-31T14:15:58;27.80;39.90
74294;DHT22;64044;59.904;10.738;2023-08-31T14:18:24;27.90;39.60
74294;DHT22;64044;59.904;10.738;2023-08-31T14:20:51;28.00;39.70
74294;DHT22;64044;59.904;10.738;2023-08-31T14:23:17;28.10;39.30
74294;DHT22;64044;59.904;10.738;2023-08-31T14:25:43;28.10;39.10
74294;DHT22;64044;59.904;10.738;2023-08-31T14:28:08;28.10;39.10
74294;DHT22;64044;59.904;10.738;2023-08-31T14:30:37;28.10;39.20
74294;DHT22;64044;59.904;10.738;2023-08-31T14:33:03;28.20;39.10
74294;DHT22;64044;59.904;10.738;2023-08-31T14:35:29;28.20;39.30
74294;DHT22;64044;59.904;10.738;2023-08-31T14:37:54;28.20;39.40
74294;DHT22;64044;59.904;10.738;2023-08-31T14:40:20;28.30;39.90
74294;DHT22;64044;59.904;10.738;2023-08-31T14:42:46;28.30;40.40
74294;DHT22;64044;59.904;10.738;2023-08-31T14:45:12;28.40;39.80
74294;DHT22;64044;59.904;10.738;2023-08-31T14:47:37;28.40;40.30
74294;DHT22;64044;59.904;10.738;2023-08-31T14:50:03;28.40;40.00
74294;DHT22;64044;59.904;10.738;2023-08-31T14:52:32;28.50;39.40
74294;DHT22;64044;59.904;10.738;2023-08-31T14:54:59;28.50;39.60
74294;DHT22;64044;59.904;10.738;2023-08-31T14:57:25;28.50;39.70
74294;DHT22;64044;59.904;10.738;2023-08-31T14:59:51;28.50;39.90
74294;DHT22;64044;59.904;10.738;2023-08-31T15:02:20;28.50;39.70
74294;DHT22;64044;59.904;10.738;2023-08-31T15:04:48;28.50;40.00
74294;DHT22;64044;59.904;10.738;2023-08-31T15:07:15;28.50;39.30
74294;DHT22;64044;59.904;10.738;2023-08-31T15:09:42;28.60;39.60
74294;DHT22;64044;59.904;10.738;2023-08-31T15:12:08;28.70;39.70
74294;DHT22;64044;59.904;10.738;2023-08-31T15:14:33;28.90;39.70
74294;DHT22;64044;59.904;10.738;2023-08-31T15:16:59;29.20;39.30
74294;DHT22;64044;59.904;10.738;2023-08-31T15:19:25;29.60;39.20
74294;DHT22;64044;59.904;10.738;2023-08-31T15:21:51;30.00;39.20